Time;durP1;ratioP1;P1;durP2;ratioP2;P2;SDS_P1;SDS_P2;PMS_P1;PMS_P2;Temp;Humidity;BMP_temperature;BMP_pressure;BME280_temperature;BME280_humidity;BME280_pressure;Samples;Min_cycle;Max_cycle;Signal;HPM_P1;HPM_P2
2022/10/10 00:00:07;;;;;;;14.27;9.00;;;;;;;-145.69;100.00;71816.31;5055988;28;20206;-85
2022/10/10 00:02:35;;;;;;;15.60;7.80;;;;;;;-145.69;100.00;71822.28;5055964;28;20582;-85
2022/10/10 00:05:02;;;;;;;13.70;8.33;;;;;;;-145.69;100.00;71824.25;5055630;28;20199;-85
2022/10/10 00:07:28;;;;;;;12.50;7.83;;;;;;;-145.69;100.00;71822.28;5054337;28;20210;-85
2022/10/10 00:09:55;;;;;;;14.67;7.73;;;;;;;-145.69;100.00;71820.28;5055744;28;20204;-84
2022/10/10 00:12:21;;;;;;;13.77;7.03;;;;;;;-145.69;100.00;71816.31;5071966;28;20699;-85
2022/10/10 00:14:48;;;;;;;17.47;8.43;;;;;;;-145.69;100.00;71802.38;5075584;28;20203;-85
2022/10/10 00:17:14;;;;;;;14.80;7.87;;;;;;;-145.69;100.00;71804.38;5074912;28;20233;-85
2022/10/10 00:19:42;;;;;;;14.90;8.00;;;;;;;-145.69;100.00;71796.41;5075085;28;20210;-84
2022/10/10 00:22:08;;;;;;;17.33;8.00;;;;;;;-145.69;100.00;71790.44;5075235;28;20201;-84
2022/10/10 00:24:35;;;;;;;18.00;7.90;;;;;;;-145.69;100.00;71786.47;5074708;28;20202;-83
2022/10/10 00:27:02;;;;;;;17.23;8.10;;;;;;;-145.69;100.00;71782.47;5075355;28;20202;-84
2022/10/10 00:29:28;;;;;;;14.50;7.33;;;;;;;-145.69;100.00;71776.50;5074776;28;20657;-83
2022/10/10 00:31:55;;;;;;;15.80;8.00;;;;;;;-145.69;100.00;71780.50;5074838;28;20566;-84
2022/10/10 00:34:21;;;;;;;17.23;7.93;;;;;;;-145.69;100.00;71780.50;5074870;28;20198;-84
2022/10/10 00:36:49;;;;;;;11.13;7.13;;;;;;;-145.69;100.00;71790.44;5074011;28;20194;-84
2022/10/10 00:39:15;;;;;;;10.63;6.50;;;;;;;-145.69;100.00;71782.47;5074461;28;20213;-84
2022/10/10 00:41:42;;;;;;;14.33;7.33;;;;;;;-145.69;100.00;71784.47;5074697;28;20203;-85
2022/10/10 00:44:12;;;;;;;12.53;7.40;;;;;;;-145.69;100.00;71780.50;5074872;28;20706;-84
2022/10/10 00:46:39;;;;;;;15.13;7.10;;;;;;;-145.69;100.00;71780.50;5073507;28;20206;-84
2022/10/10 00:49:10;;;;;;;16.13;8.10;;;;;;;-145.69;100.00;71780.50;5074688;28;20542;-84
2022/10/10 00:51:37;;;;;;;12.93;6.93;;;;;;;-145.69;100.00;71770.53;5075395;28;20230;-84
2022/10/10 00:54:08;;;;;;;16.23;7.93;;;;;;;-145.69;100.00;71772.53;5070698;28;20438;-85
2022/10/10 00:56:39;;;;;;;16.43;8.13;;;;;;;-145.69;100.00;71768.53;5054889;28;20199;-85
2022/10/10 00:59:10;;;;;;;14.97;7.60;;;;;;;-145.69;100.00;71764.56;5055023;28;20238;-85
2022/10/10 01:01:37;;;;;;;15.93;7.70;;;;;;;-145.69;100.00;71760.59;5054530;28;20581;-86
2022/10/10 01:04:03;;;;;;;18.83;7.77;;;;;;;-145.69;100.00;71758.59;5055538;28;20204;-86
2022/10/10 01:06:31;;;;;;;13.57;6.87;;;;;;;-145.69;100.00;71756.59;5055470;28;20692;-85
2022/10/10 01:08:57;;;;;;;11.87;7.20;;;;;;;-145.69;100.00;71756.59;5055442;28;20204;-84
2022/10/10 01:11:42;;;;;;;17.40;6.83;;;;;;;-145.69;100.00;71756.59;5055242;28;20223;-85
2022/10/10 01:14:16;;;;;;;17.70;6.33;;;;;;;-145.69;100.00;71756.59;5054574;28;20210;-85
2022/10/10 01:16:56;;;;;;;13.57;6.33;;;;;;;-145.69;100.00;71756.59;5054583;28;20205;-85
2022/10/10 01:19:39;;;;;;;14.33;6.50;;;;;;;-145.69;100.00;71746.66;5054296;28;20202;-84
2022/10/10 01:22:16;;;;;;;14.13;6.50;;;;;;;-145.69;100.00;71744.66;5053990;28;20203;-85
2022/10/10 01:25:01;;;;;;;11.00;5.40;;;;;;;-145.69;100.00;71744.66;5054546;28;20222;-85
2022/10/10 01:27:38;;;;;;;13.07;6.40;;;;;;;-145.69;100.00;71748.66;5053756;28;20210;-84
2022/10/10 01:30:08;;;;;;;15.20;6.77;;;;;;;-145.69;100.00;71742.69;5054024;28;20688;-85
2022/10/10 01:32:40;;;;;;;13.60;6.00;;;;;;;-145.69;100.00;71738.69;5053957;28;20227;-84
2022/10/10 01:35:20;;;;;;;15.03;5.73;;;;;;;-145.69;100.00;71736.72;5053709;28;20203;-84
2022/10/10 01:37:52;;;;;;;10.80;5.63;;;;;;;-145.69;100.00;71740.69;5054034;28;20211;-85
2022/10/10 01:40:28;;;;;;;9.20;5.17;;;;;;;-145.69;100.00;71736.72;5054767;28;20210;-85
2022/10/10 01:42:58;;;;;;;10.50;5.73;;;;;;;-145.69;100.00;71734.72;5054937;28;20226;-85
2022/10/10 01:45:27;;;;;;;14.00;5.93;;;;;;;-145.69;100.00;71744.66;5053655;28;20211;-85
2022/10/10 01:47:57;;;;;;;13.03;5.83;;;;;;;-145.69;100.00;71732.72;5034131;28;20196;-86
2022/10/10 01:50:26;;;;;;;9.20;5.00;;;;;;;-145.69;100.00;71740.69;5034605;28;20204;-86
2022/10/10 01:53:03;;;;;;;11.03;5.40;;;;;;;-145.69;100.00;71748.66;5034504;28;20238;-85
2022/10/10 01:55:47;;;;;;;9.77;5.33;;;;;;;-145.69;100.00;71748.66;5034837;28;20195;-86
2022/10/10 01:58:36;;;;;;;10.90;5.63;;;;;;;-145.69;100.00;71742.69;5036384;28;20207;-86
2022/10/10 02:01:10;;;;;;;10.77;5.27;;;;;;;-145.69;100.00;71744.66;5034591;28;20204;-85
2022/10/10 02:03:43;;;;;;;9.10;5.50;;;;;;;-145.69;100.00;71740.69;5051537;28;20210;-84
2022/10/10 02:06:14;;;;;;;13.20;5.67;;;;;;;-145.69;100.00;71736.72;5053724;28;20206;-86
2022/10/10 02:08:47;;;;;;;10.07;5.13;;;;;;;-145.69;100.00;71732.72;5053784;28;20211;-86
2022/10/10 02:11:14;;;;;;;8.97;5.00;;;;;;;-145.69;100.00;71728.75;5054215;28;20203;-86
2022/10/10 02:13:45;;;;;;;8.53;4.97;;;;;;;-145.69;100.00;71726.75;5053100;28;20234;-86
2022/10/10 02:16:15;;;;;;;8.77;4.87;;;;;;;-145.69;100.00;71726.75;5053844;28;20195;-85
2022/10/10 02:18:44;;;;;;;10.13;5.07;;;;;;;-145.69;100.00;71712.81;5053613;28;20230;-84
2022/10/10 02:21:14;;;;;;;8.23;4.60;;;;;;;-145.69;100.00;71712.81;5054035;28;20203;-85
2022/10/10 02:23:44;;;;;;;12.13;5.23;;;;;;;-145.69;100.00;71710.84;5054257;28;20539;-86
2022/10/10 02:26:15;;;;;;;9.77;4.90;;;;;;;-145.69;100.00;71708.84;5053691;28;20270;-85
2022/10/10 02:28:48;;;;;;;7.80;4.70;;;;;;;-145.69;100.00;71710.84;5054266;28;20210;-85
2022/10/10 02:31:21;;;;;;;11.60;5.13;;;;;;;-145.69;100.00;71704.88;5058106;28;20199;-86
2022/10/10 02:33:55;;;;;;;10.37;4.47;;;;;;;-145.69;100.00;71702.88;5059154;28;20223;-86
2022/10/10 02:36:23;;;;;;;10.47;4.60;;;;;;;-145.69;100.00;71700.88;5058248;28;20662;-86
2022/10/10 02:38:51;;;;;;;13.90;4.50;;;;;;;-145.69;100.00;71698.91;5058223;28;20562;-86
2022/10/10 02:41:19;;;;;;;10.20;4.75;;;;;;;-145.69;100.00;71692.94;5057672;28;20199;-86
2022/10/10 02:43:47;;;;;;;9.47;4.30;;;;;;;-145.69;100.00;71686.97;5057524;28;20214;-85
2022/10/10 02:46:15;;;;;;;11.60;4.13;;;;;;;-145.69;100.00;71690.94;5057611;28;20199;-86
2022/10/10 02:48:43;;;;;;;11.10;3.95;;;;;;;-145.69;100.00;71688.94;5058027;28;20203;-86
2022/10/10 02:51:10;;;;;;;14.20;4.83;;;;;;;-145.69;100.00;71686.97;5057930;28;20210;-85
2022/10/10 02:53:37;;;;;;;7.33;3.80;;;;;;;-145.69;100.00;71686.97;5057516;28;20231;-85
2022/10/10 02:56:04;;;;;;;7.47;3.50;;;;;;;-145.69;100.00;71684.97;5059258;28;20199;-86
2022/10/10 02:58:31;;;;;;;9.53;4.07;;;;;;;-145.69;100.00;71677.00;5058083;28;20199;-84
2022/10/10 03:00:57;;;;;;;8.27;3.73;;;;;;;-145.69;100.00;71677.00;5058230;28;20700;-84
2022/10/10 03:03:25;;;;;;;8.30;4.07;;;;;;;-145.69;100.00;71669.03;5058262;28;20214;-85
2022/10/10 03:05:51;;;;;;;7.30;3.67;;;;;;;-145.69;100.00;71667.06;5057243;28;20207;-84
2022/10/10 03:08:18;;;;;;;9.90;3.93;;;;;;;-145.69;100.00;71659.09;5057219;28;20208;-86
2022/10/10 03:10:54;;;;;;;10.07;3.73;;;;;;;-145.69;100.00;71651.13;5057139;28;20200;-86
2022/10/10 03:13:21;;;;;;;6.53;3.83;;;;;;;-145.69;100.00;71649.16;5057281;28;20273;-86
2022/10/10 03:15:47;;;;;;;7.73;3.90;;;;;;;-145.69;100.00;71653.13;5056875;28;20217;-85
2022/10/10 03:18:14;;;;;;;12.03;3.90;;;;;;;-145.69;100.00;71647.16;5056915;28;20234;-86
2022/10/10 03:20:41;;;;;;;9.90;3.75;;;;;;;-145.69;100.00;71653.13;5057051;28;20195;-86
2022/10/10 03:23:08;;;;;;;7.32;3.63;;;;;;;-145.69;100.00;71653.13;5057252;28;20554;-86
2022/10/10 03:25:34;;;;;;;11.87;4.47;;;;;;;-145.69;100.00;71653.13;5057398;28;20580;-86
2022/10/10 03:28:01;;;;;;;8.73;4.20;;;;;;;-145.69;100.00;71657.09;5056422;28;20212;-86
2022/10/10 03:30:28;;;;;;;11.13;4.07;;;;;;;-145.69;100.00;71665.06;5057017;28;20199;-86
2022/10/10 03:32:54;;;;;;;10.67;4.03;;;;;;;-145.69;100.00;71669.03;5057007;28;20235;-85
2022/10/10 03:35:20;;;;;;;11.23;4.23;;;;;;;-145.69;100.00;71671.03;5067440;28;20194;-85
2022/10/10 03:37:48;;;;;;;11.60;4.63;;;;;;;-145.69;100.00;71657.09;5077004;28;20213;-84
2022/10/10 03:40:15;;;;;;;12.83;4.20;;;;;;;-145.69;100.00;71657.09;5077131;28;20202;-85
2022/10/10 03:42:41;;;;;;;8.30;4.00;;;;;;;-145.69;100.00;71657.09;5076939;28;20561;-86
2022/10/10 03:45:09;;;;;;;9.63;4.30;;;;;;;-145.69;100.00;71655.13;5077198;28;20199;-86
2022/10/10 03:47:35;;;;;;;9.17;3.90;;;;;;;-145.69;100.00;71645.16;5076351;28;20534;-85
2022/10/10 03:50:02;;;;;;;10.20;3.37;;;;;;;-145.69;100.00;71641.19;5076539;28;20202;-85
2022/10/10 03:52:28;;;;;;;8.10;4.17;;;;;;;-145.69;100.00;71643.19;5076375;28;20232;-86
2022/10/10 03:54:56;;;;;;;9.03;3.60;;;;;;;-145.69;100.00;71657.09;5076430;28;20203;-85
2022/10/10 03:57:22;;;;;;;10.27;4.50;;;;;;;-145.69;100.00;71655.13;5076123;28;20653;-85
2022/10/10 03:59:49;;;;;;;14.20;4.90;;;;;;;-145.69;100.00;71647.16;5059977;28;20199;-85
2022/10/10 04:02:15;;;;;;;9.17;3.80;;;;;;;-145.69;100.00;71657.09;5075167;28;20199;-84
2022/10/10 04:04:42;;;;;;;9.73;4.20;;;;;;;-145.69;100.00;71675.00;5074636;28;20445;-84
2022/10/10 04:07:08;;;;;;;13.40;4.10;;;;;;;-145.69;100.00;71679.00;5075488;28;20194;-85
2022/10/10 04:09:35;;;;;;;7.73;3.47;;;;;;;-145.69;100.00;71661.09;5076410;28;20653;-85
2022/10/10 04:12:03;;;;;;;7.13;3.70;;;;;;;-145.69;100.00;71643.19;5076837;28;20549;-84
2022/10/10 04:14:29;;;;;;;12.75;4.70;;;;;;;-145.69;100.00;71641.19;5075858;28;20195;-85
2022/10/10 04:16:56;;;;;;;9.20;3.63;;;;;;;-145.69;100.00;71665.06;5075808;28;20199;-85
2022/10/10 04:19:22;;;;;;;10.57;3.70;;;;;;;-145.69;100.00;71675.00;5075995;28;20209;-85
2022/10/10 04:21:49;;;;;;;7.57;4.20;;;;;;;-145.69;100.00;71663.06;5075901;28;20653;-86
2022/10/10 04:24:15;;;;;;;7.00;4.27;;;;;;;-145.69;100.00;71649.16;5061207;28;20203;-85
2022/10/10 04:26:42;;;;;;;5.20;3.50;;;;;;;-145.69;100.00;71657.09;5056007;28;20666;-85
2022/10/10 04:29:10;;;;;;;10.90;3.23;;;;;;;-145.69;100.00;71655.13;5055830;28;20566;-84
2022/10/10 04:31:36;;;;;;;10.20;4.47;;;;;;;-145.69;100.00;71649.16;5055047;28;20199;-82
2022/10/10 04:34:03;;;;;;;9.73;4.47;;;;;;;-145.69;100.00;71657.09;5054664;28;20242;-84
2022/10/10 04:36:29;;;;;;;11.07;4.77;;;;;;;-145.69;100.00;71635.22;5055222;28;20554;-85
2022/10/10 04:38:56;;;;;;;11.40;4.20;;;;;;;-145.69;100.00;71641.19;5055251;28;20211;-84
2022/10/10 04:41:22;;;;;;;13.30;4.20;;;;;;;-145.69;100.00;71649.16;5054638;28;20669;-82
2022/10/10 04:43:48;;;;;;;15.40;5.23;;;;;;;-145.69;100.00;71653.13;5054393;28;20673;-83
2022/10/10 04:46:17;;;;;;;9.93;4.07;;;;;;;-145.69;100.00;71657.09;5038013;28;20200;-82
2022/10/10 04:48:44;;;;;;;9.57;4.00;;;;;;;-145.69;100.00;71675.00;5074431;28;20199;-83
2022/10/10 04:51:11;;;;;;;10.10;4.27;;;;;;;-145.69;100.00;71659.09;5074134;28;20202;-82
2022/10/10 04:53:37;;;;;;;10.93;4.43;;;;;;;-145.69;100.00;71661.09;5073419;28;20231;-83
2022/10/10 04:56:04;;;;;;;10.53;4.47;;;;;;;-145.69;100.00;71679.00;5074683;28;20199;-84
2022/10/10 04:58:30;;;;;;;17.52;4.13;;;;;;;-145.69;100.00;71680.97;5069615;28;20191;-84
2022/10/10 05:00:57;;;;;;;5.73;3.67;;;;;;;-145.69;100.00;71684.97;5054206;28;20207;-84
2022/10/10 05:03:25;;;;;;;8.75;3.97;;;;;;;-145.69;100.00;71684.97;5054193;28;20200;-83
2022/10/10 05:05:52;;;;;;;8.23;3.80;;;;;;;-145.69;100.00;71682.97;5054164;28;20204;-84
2022/10/10 05:08:19;;;;;;;14.17;5.27;;;;;;;-145.69;100.00;71680.97;5054066;28;20207;-83
2022/10/10 05:10:47;;;;;;;10.00;4.57;;;;;;;-145.69;100.00;71669.03;5060303;28;20198;-83
2022/10/10 05:13:15;;;;;;;9.60;4.67;;;;;;;-145.69;100.00;71684.97;5076142;28;20218;-86
2022/10/10 05:15:42;;;;;;;13.40;4.67;;;;;;;-145.69;100.00;71671.03;5075864;28;20207;-86
2022/10/10 05:18:09;;;;;;;11.30;4.40;;;;;;;-145.69;100.00;71680.97;5074836;28;20234;-86
2022/10/10 05:20:37;;;;;;;10.73;4.80;;;;;;;-145.69;100.00;71659.09;5074924;28;20209;-85
2022/10/10 05:23:03;;;;;;;9.98;4.72;;;;;;;-145.69;100.00;71653.13;5067908;28;20203;-85
2022/10/10 05:25:30;;;;;;;14.48;4.63;;;;;;;-145.69;100.00;71655.13;5054582;28;20596;-85
2022/10/10 05:27:56;;;;;;;14.73;4.18;;;;;;;-145.69;100.00;71649.16;5054528;28;20558;-84
2022/10/10 05:30:23;;;;;;;11.45;4.60;;;;;;;-145.69;100.00;71633.22;5054439;28;20203;-85
2022/10/10 05:32:49;;;;;;;8.65;4.68;;;;;;;-145.69;100.00;71625.25;5055223;28;20230;-85
2022/10/10 05:35:16;;;;;;;13.93;4.70;;;;;;;-145.69;100.00;71621.28;5054739;28;20203;-85
2022/10/10 05:37:44;;;;;;;9.50;4.75;;;;;;;-145.69;100.00;71617.31;5055355;28;20199;-85
2022/10/10 05:40:11;;;;;;;11.98;4.93;;;;;;;-145.69;100.00;71621.28;5054458;28;20203;-86
2022/10/10 05:42:37;;;;;;;14.00;4.82;;;;;;;-145.69;100.00;71609.34;5054142;28;20203;-86
2022/10/10 05:45:05;;;;;;;8.38;4.07;;;;;;;-145.69;100.00;71625.25;5054400;28;20215;-85
2022/10/10 05:47:31;;;;;;;8.10;3.72;;;;;;;-145.69;100.00;71631.25;5062633;28;20194;-86
2022/10/10 05:49:58;;;;;;;10.52;3.90;;;;;;;-145.69;100.00;71631.25;5074230;28;20202;-85
2022/10/10 05:52:24;;;;;;;13.55;3.90;;;;;;;-145.69;100.00;71633.22;5074324;28;20194;-86
2022/10/10 05:54:52;;;;;;;10.32;4.03;;;;;;;-145.69;100.00;71629.25;5074169;28;20234;-85
2022/10/10 05:57:18;;;;;;;9.43;4.63;;;;;;;-145.69;100.00;71623.28;5073840;28;20649;-85
2022/10/10 05:59:45;;;;;;;10.98;4.85;;;;;;;-145.69;100.00;71637.19;5062846;28;20218;-86
2022/10/10 06:02:12;;;;;;;12.43;4.80;;;;;;;-145.69;100.00;71639.19;5053528;28;20218;-86
2022/10/10 06:04:39;;;;;;;9.15;3.60;;;;;;;-145.69;100.00;71641.19;5053772;28;20598;-86
2022/10/10 06:07:06;;;;;;;9.45;4.80;;;;;;;-145.69;100.00;71637.19;5053667;28;20199;-85
2022/10/10 06:09:32;;;;;;;8.10;4.43;;;;;;;-145.69;100.00;71637.19;5053850;28;20551;-87
2022/10/10 06:12:00;;;;;;;11.00;4.70;;;;;;;-145.69;100.00;71633.22;5067957;28;20445;-85
2022/10/10 06:14:26;;;;;;;7.00;4.00;;;;;;;-145.69;100.00;71611.34;5073606;28;20222;-85
2022/10/10 06:16:53;;;;;;;10.45;4.28;;;;;;;-145.69;100.00;71593.44;5073257;28;20217;-84
2022/10/10 06:19:20;;;;;;;10.40;4.13;;;;;;;-145.69;100.00;71609.34;5073263;28;20203;-85
2022/10/10 06:21:46;;;;;;;9.32;4.22;;;;;;;-145.69;100.00;71607.34;5073159;28;20246;-85
2022/10/10 06:24:13;;;;;;;10.13;4.20;;;;;;;-145.69;100.00;71603.38;5072508;28;20438;-84
2022/10/10 06:26:40;;;;;;;7.32;3.78;;;;;;;-145.69;100.00;71593.44;5073167;28;20289;-84
2022/10/10 06:29:08;;;;;;;7.95;3.25;;;;;;;-145.69;100.00;71589.44;5072948;28;20198;-84
2022/10/10 06:31:38;;;;;;;5.75;3.13;;;;;;;-145.69;100.00;71577.50;5073201;28;20206;-84
2022/10/10 06:34:05;;;;;;;9.25;3.47;;;;;;;-145.69;100.00;71565.56;5072893;28;20272;-83
2022/10/10 06:36:31;;;;;;;10.52;3.30;;;;;;;-145.69;100.00;71557.59;5072771;28;20195;-84
2022/10/10 06:38:58;;;;;;;10.43;3.03;;;;;;;-145.69;100.00;71555.63;5072910;28;20661;-84
2022/10/10 06:41:25;;;;;;;7.95;3.22;;;;;;;-145.69;100.00;71561.59;5073228;28;20195;-84
2022/10/10 06:43:51;;;;;;;8.98;2.55;;;;;;;-145.69;100.00;71557.59;5072980;28;20199;-84
2022/10/10 06:46:19;;;;;;;3.33;2.55;;;;;;;-145.69;100.00;71547.66;5071671;28;20286;-83
2022/10/10 06:48:45;;;;;;;5.57;3.28;;;;;;;-145.69;100.00;71537.72;5052662;28;20206;-85
2022/10/10 06:51:14;;;;;;;10.15;3.30;;;;;;;-145.69;100.00;71521.78;5052601;28;20234;-84
2022/10/10 06:53:41;;;;;;;9.15;3.00;;;;;;;-145.69;100.00;71509.84;5037282;28;20310;-84
2022/10/10 06:56:14;;;;;;;6.85;2.70;;;;;;;-145.69;100.00;71489.94;5032465;28;20200;-84
2022/10/10 06:58:41;;;;;;;7.00;2.92;;;;;;;-145.69;100.00;71493.94;5040407;28;20248;-84
2022/10/10 07:01:07;;;;;;;6.60;2.60;;;;;;;-145.69;100.00;71491.94;5072644;28;20285;-84
2022/10/10 07:03:35;;;;;;;6.95;2.60;;;;;;;-145.69;100.00;71507.84;5072657;28;20229;-85
2022/10/10 07:06:03;;;;;;;6.65;2.33;;;;;;;-145.69;100.00;71517.81;5072421;28;20206;-85
2022/10/10 07:08:30;;;;;;;2.92;2.22;;;;;;;-145.69;100.00;71519.81;5072941;28;20297;-84
2022/10/10 07:10:57;;;;;;;5.47;2.38;;;;;;;-145.69;100.00;71521.78;5071514;28;20206;-84
2022/10/10 07:13:23;;;;;;;5.55;2.40;;;;;;;-145.69;100.00;71511.84;5072960;28;20230;-85
2022/10/10 07:15:50;;;;;;;8.95;2.20;;;;;;;-145.69;100.00;71505.88;5073308;28;20561;-84
2022/10/10 07:18:18;;;;;;;3.67;2.33;;;;;;;-145.69;100.00;71509.84;5075919;28;20591;-84
2022/10/10 07:20:46;;;;;;;5.78;2.30;;;;;;;-145.69;100.00;71499.91;5076155;28;20568;-83
2022/10/10 07:23:13;;;;;;;6.97;2.30;;;;;;;-145.69;100.00;71482.00;5076356;28;20519;-84
2022/10/10 07:25:41;;;;;;;4.50;2.20;;;;;;;-145.69;100.00;71485.97;5077338;28;20214;-83
2022/10/10 07:28:08;;;;;;;6.53;2.38;;;;;;;-145.69;100.00;71501.88;5076641;28;20202;-84
2022/10/10 07:30:39;;;;;;;4.65;2.03;;;;;;;-145.69;100.00;71491.94;5076765;28;20203;-83
2022/10/10 07:33:06;;;;;;;7.60;2.42;;;;;;;-145.69;100.00;71474.03;5077322;28;20641;-83
2022/10/10 07:35:32;;;;;;;4.65;2.08;;;;;;;-145.69;100.00;71476.03;5069500;28;20191;-83
2022/10/10 07:38:00;;;;;;;3.45;2.00;;;;;;;-145.69;100.00;71478.00;5056253;28;20203;-83
2022/10/10 07:40:27;;;;;;;6.45;2.15;;;;;;;-145.69;100.00;71478.00;5056370;28;20662;-83
2022/10/10 07:42:54;;;;;;;6.38;2.15;;;;;;;-145.69;100.00;71470.06;5057065;28;20558;-83
2022/10/10 07:45:21;;;;;;;7.95;2.03;;;;;;;-145.69;100.00;71436.22;5055976;28;20207;-81
2022/10/10 07:47:47;;;;;;;4.28;2.40;;;;;;;-145.69;100.00;71422.28;5057155;28;20199;-82
2022/10/10 07:50:14;;;;;;;7.95;4.28;;;;;;;-145.69;100.00;71414.34;5056268;28;20207;-84
2022/10/10 07:52:41;;;;;;;112.90;31.13;;;;;;;-145.69;100.00;71422.28;5056460;28;20677;-84
2022/10/10 07:55:10;;;;;;;12.02;3.00;;;;;;;-145.69;100.00;71420.31;5056587;28;20223;-84
2022/10/10 07:57:37;;;;;;;3.88;2.30;;;;;;;-145.69;100.00;71414.34;5055673;28;20206;-85
2022/10/10 08:00:06;;;;;;;12.60;3.42;;;;;;;-145.69;100.00;71414.34;5067101;28;20205;-84
2022/10/10 08:02:32;;;;;;;15.48;7.15;;;;;;;-145.69;100.00;71414.34;5076619;28;20211;-85
2022/10/10 08:04:59;;;;;;;3.50;2.22;;;;;;;-145.69;100.00;71394.44;5060215;28;20191;-85
2022/10/10 08:07:25;;;;;;;7.32;2.03;;;;;;;-145.69;100.00;71386.47;5055355;28;20634;-85
2022/10/10 08:09:52;;;;;;;3.28;1.73;;;;;;;-145.69;100.00;71374.53;5055181;28;20646;-85
2022/10/10 08:12:20;;;;;;;4.65;2.08;;;;;;;-145.69;100.00;71370.56;5059377;28;20203;-81
2022/10/10 08:14:46;;;;;;;4.53;1.60;;;;;;;-145.69;100.00;71368.56;5056566;28;20231;-84
2022/10/10 08:17:13;;;;;;;8.48;1.92;;;;;;;-145.69;100.00;71380.50;5055076;28;20195;-84
2022/10/10 08:19:39;;;;;;;7.95;2.30;;;;;;;-145.69;100.00;71358.63;5055415;28;20195;-85
2022/10/10 08:22:06;;;;;;;4.90;1.70;;;;;;;-145.69;100.00;71354.63;5054810;28;20243;-84
2022/10/10 08:24:32;;;;;;;2.25;1.30;;;;;;;-145.69;100.00;71320.81;5055038;28;20213;-84
2022/10/10 08:26:59;;;;;;;5.22;1.60;;;;;;;-145.69;100.00;71306.88;5056085;28;20272;-84
2022/10/10 08:29:27;;;;;;;6.97;1.52;;;;;;;-145.69;100.00;71286.97;5054153;28;20226;-85
2022/10/10 08:31:53;;;;;;;4.28;1.65;;;;;;;-145.69;100.00;71302.91;5055179;28;20199;-84
2022/10/10 08:34:20;;;;;;;5.90;1.60;;;;;;;-145.69;100.00;71267.09;5054442;28;20231;-84
2022/10/10 08:36:47;;;;;;;5.68;1.60;;;;;;;-145.69;100.00;71267.09;5054778;28;20231;-84
2022/10/10 08:39:13;;;;;;;4.38;1.73;;;;;;;-145.69;100.00;71255.16;5068650;28;20614;-84
2022/10/10 08:41:45;;;;;;;4.15;1.55;;;;;;;-145.69;100.00;71245.19;5074444;28;20667;-84
2022/10/10 08:44:16;;;;;;;2.55;1.35;;;;;;;-145.69;100.00;71247.19;5074293;28;20213;-85
2022/10/10 08:46:49;;;;;;;1.73;1.10;;;;;;;-145.69;100.00;71215.34;5074647;28;20226;-85
2022/10/10 08:49:24;;;;;;;2.38;1.23;;;;;;;-145.69;100.00;71195.47;5074766;28;20202;-86
2022/10/10 08:51:58;;;;;;;1.90;1.17;;;;;;;-145.69;100.00;71199.44;5054651;28;20208;-85
2022/10/10 08:54:27;;;;;;;2.92;1.17;;;;;;;-145.69;100.00;71165.59;5054131;28;20227;-86
2022/10/10 08:56:58;;;;;;;2.72;1.38;;;;;;;-145.69;100.00;71141.72;5051705;28;20204;-86
2022/10/10 08:59:27;;;;;;;6.35;1.52;;;;;;;-145.69;100.00;71133.78;5034733;28;20199;-85
2022/10/10 09:02:10;;;;;;;3.05;1.55;;;;;;;-145.69;100.00;71111.88;5036914;28;20654;-82
2022/10/10 09:04:37;;;;;;;4.65;1.48;;;;;;;-145.69;100.00;71113.88;5073900;28;20672;-85
2022/10/10 09:07:17;;;;;;;7.07;1.83;;;;;;;-145.69;100.00;71092.00;5073837;28;20198;-85
2022/10/10 09:09:51;;;;;;;8.35;2.42;;;;;;;-145.69;100.00;71056.16;5074227;28;20202;-85
2022/10/10 09:12:28;;;;;;;9.43;1.42;;;;;;;-145.69;100.00;71068.13;5074199;28;20198;-85
2022/10/10 09:15:04;;;;;;;3.92;1.58;;;;;;;-145.69;100.00;71046.22;5063405;28;20234;-85
2022/10/10 09:17:39;;;;;;;2.97;1.35;;;;;;;-145.69;100.00;71052.19;5053650;28;20670;-85
2022/10/10 09:20:33;;;;;;;4.95;1.70;;;;;;;-145.69;100.00;71044.22;5053853;28;20680;-85
2022/10/10 09:23:03;;;;;;;7.78;2.08;;;;;;;-145.69;100.00;71028.31;5053820;28;20204;-85
2022/10/10 09:25:35;;;;;;;8.02;1.80;;;;;;;-145.69;100.00;70972.59;5054231;28;20203;-85
2022/10/10 09:28:10;;;;;;;5.32;1.80;;;;;;;-145.69;100.00;70994.50;5073520;28;20661;-85
2022/10/10 09:30:43;;;;;;;9.32;2.50;;;;;;;-145.69;100.00;70922.88;5073758;28;20652;-86
2022/10/10 09:33:23;;;;;;;9.13;4.10;;;;;;;-145.69;100.00;70899.00;5072348;28;20525;-85
2022/10/10 09:35:53;;;;;;;11.20;3.53;;;;;;;-145.69;99.40;70877.09;5073434;28;20226;-86
2022/10/10 09:38:32;;;;;;;9.00;3.22;;;;;;;-145.69;99.66;70857.22;5066485;28;20206;-85
2022/10/10 09:41:02;;;;;;;7.28;2.25;;;;;;;-145.69;94.51;70837.31;5052847;28;20268;-86
2022/10/10 09:43:33;;;;;;;6.20;2.03;;;;;;;-145.69;98.81;70960.66;5053955;28;20207;-85
2022/10/10 09:46:00;;;;;;;8.52;1.80;;;;;;;-145.69;95.20;70952.72;5053929;28;20203;-85
2022/10/10 09:48:31;;;;;;;9.90;1.80;;;;;;;-145.69;99.57;70928.84;5053315;28;20210;-84
2022/10/10 09:50:58;;;;;;;4.05;1.38;;;;;;;-145.69;100.00;70978.56;5054329;28;20550;-84
2022/10/10 09:53:24;;;;;;;8.57;1.95;;;;;;;-145.69;100.00;70996.47;5053771;28;20210;-86
2022/10/10 09:55:53;;;;;;;7.85;1.75;;;;;;;-145.69;99.57;70984.53;5056256;28;20226;-87
2022/10/10 09:58:26;;;;;;;6.90;1.75;;;;;;;-145.69;97.44;70956.69;5053995;28;20249;-86
2022/10/10 10:00:53;;;;;;;9.25;2.13;;;;;;;-145.69;98.58;70954.69;5053107;28;20209;-86
2022/10/10 10:03:21;;;;;;;14.82;2.50;;;;;;;-145.69;94.64;70976.59;5052998;28;20195;-86
2022/10/10 10:05:57;;;;;;;6.57;1.63;;;;;;;-145.69;94.97;70956.69;5053506;28;20672;-86
2022/10/10 10:08:29;;;;;;;7.00;2.05;;;;;;;-145.69;96.55;70924.84;5053484;28;20258;-86
2022/10/10 10:10:57;;;;;;;11.20;2.35;;;;;;;-145.69;94.45;70875.13;5053282;28;20203;-87
2022/10/10 10:13:30;;;;;;;9.85;2.08;;;;;;;-145.69;90.49;70893.03;5054181;28;20207;-87
2022/10/10 10:16:06;;;;;;;10.27;1.98;;;;;;;-145.69;91.37;70910.94;5072920;28;20215;-87
2022/10/10 10:18:39;;;;;;;8.93;2.10;;;;;;;-145.69;90.59;70942.75;5072884;28;20234;-87
2022/10/10 10:21:16;;;;;;;16.95;2.20;;;;;;;-145.69;91.41;70942.75;5074203;28;20198;-88
2022/10/10 10:23:49;;;;;;;11.02;2.25;;;;;;;-145.69;88.25;70928.84;5072838;28;20251;-86
2022/10/10 10:26:26;;;;;;;10.77;2.45;;;;;;;-145.69;90.69;70906.94;5073386;28;20210;-86
2022/10/10 10:28:54;;;;;;;6.75;2.15;;;;;;;-145.69;92.95;70926.84;5072494;28;20263;-85
2022/10/10 10:31:29;;;;;;;4.57;1.50;;;;;;;-145.69;86.56;70833.34;5073413;28;20729;-86
2022/10/10 10:34:08;;;;;;;9.43;1.70;;;;;;;-145.69;83.09;70805.47;5072850;28;20202;-86
2022/10/10 10:36:47;;;;;;;12.07;2.28;;;;;;;-145.69;84.62;70825.38;5072232;28;20704;-86
2022/10/10 10:39:28;;;;;;;13.98;1.50;;;;;;;-145.69;85.72;70857.22;5069643;28;20202;-86
2022/10/10 10:42:04;;;;;;;11.57;1.98;;;;;;;-145.69;85.44;70793.53;5073909;28;20194;-86
2022/10/10 10:44:41;;;;;;;11.50;2.92;;;;;;;-145.69;80.15;70821.41;5073467;28;20650;-85
2022/10/10 10:47:25;;;;;;;10.73;2.00;;;;;;;-145.69;82.85;70916.91;5073993;28;20194;-86
2022/10/10 10:50:03;;;;;;;15.38;2.00;;;;;;;-145.69;86.48;70908.94;5056642;28;20290;-86
2022/10/10 10:52:57;;;;;;;8.82;2.05;;;;;;;-145.69;88.89;70942.75;5036774;28;20208;-86
2022/10/10 10:55:34;;;;;;;9.40;1.95;;;;;;;-145.69;91.84;70974.59;5037630;28;20223;-86
2022/10/10 10:58:43;;;;;;;8.57;2.47;;;;;;;-145.69;90.70;70976.59;5037652;28;20203;-85
2022/10/10 11:01:25;;;;;;;8.27;2.10;;;;;;;-145.69;88.05;70922.88;5048372;28;20228;-86
2022/10/10 11:03:59;;;;;;;7.32;1.80;;;;;;;-145.69;85.99;70875.13;5077905;28;20191;-86
2022/10/10 11:06:42;;;;;;;14.82;2.10;;;;;;;-145.69;82.50;70865.16;5077243;28;20747;-86
2022/10/10 11:09:16;;;;;;;9.27;1.80;;;;;;;-145.69;81.02;70859.19;5077612;28;20203;-86
2022/10/10 11:12:00;;;;;;;8.77;1.90;;;;;;;-145.69;81.99;70861.19;5077013;28;20568;-85
2022/10/10 11:14:56;;;;;;;13.35;1.83;;;;;;;-145.69;79.14;70885.06;5076287;28;20202;-86
2022/10/10 11:17:30;;;;;;;19.75;2.42;;;;;;;-145.69;81.04;70899.00;5076037;28;20237;-85